KETCHIKAN AK US NWS current weather conditions

sailwx.info

Wind from 110 at 17 knots gusting 34

Air temperature 5.3° C
Dewpoint 2.3° C

Last reported at 2020-Jan-22 15:02 UTC.
Time now 2020-Jan-22 15:56 UTC

Location: N 55°21' W 131°41'.
View on Google Maps.

See reports from other nearby stations

  
Tides and Currents Weather Stations Pressure Air Temp Water Temp Dewpoint Dewpoint Depression Visibility Wind Speed Wind Dir Waves Ship Positions
date/time (UTC)wind fromknots sea level pressurealtimeterstation pressurevisibilityair tempwater tempwave heightnotes
2020-Jan-22 15:02 110 17 gusting 34 5.3
2020-Jan-22 14:52 110 18 gusting 28 5.2
2020-Jan-22 14:42 110 13 gusting 31 4.9
2020-Jan-22 14:32 110 13 gusting 27 4.8
2020-Jan-22 14:22 110 14 gusting 26 5.2
2020-Jan-22 14:12 110 14 gusting 27 5.3
2020-Jan-22 14:02 110 17 gusting 27 5.2
2020-Jan-22 13:52 120 19 gusting 31 5.2
2020-Jan-22 13:42 120 20 gusting 31 5.2
2020-Jan-22 13:32 120 20 gusting 34 5.0
2020-Jan-22 13:22 120 20 gusting 33 4.7
2020-Jan-22 13:12 120 15 gusting 26 4.5
2020-Jan-22 13:02 120 19 gusting 27 4.4
2020-Jan-22 12:52 120 20 gusting 31 4.8
2020-Jan-22 12:42 130 14 gusting 24 4.8
2020-Jan-22 12:32 120 15 gusting 24 4.6
2020-Jan-22 12:22 120 13 gusting 28 4.5
2020-Jan-22 12:12 120 17 gusting 28 4.7
2020-Jan-22 12:02 120 18 gusting 26 4.8
2020-Jan-22 11:52 120 20 gusting 33 4.8
2020-Jan-22 11:42 120 15 gusting 27 4.7
2020-Jan-22 11:32 130 13 gusting 22 4.9
2020-Jan-22 11:22 120 19 gusting 32 5.0
2020-Jan-22 11:12 120 18 gusting 27 4.8
2020-Jan-22 11:02 120 18 gusting 27 4.7
2020-Jan-22 10:52 130 15 gusting 26 4.6
2020-Jan-22 10:42 120 17 gusting 25 4.6
2020-Jan-22 10:32 130 17 gusting 27 4.6
2020-Jan-22 10:22 140 12 gusting 17 4.6
2020-Jan-22 10:12 130 12 gusting 20 4.5
2020-Jan-22 10:02 120 14 gusting 25 4.5
2020-Jan-22 09:52 130 14 gusting 21 5.0
2020-Jan-22 09:42 120 13 gusting 24 5.1
2020-Jan-22 09:32 120 13 gusting 21 5.0
2020-Jan-22 09:22 120 12 gusting 20 5.0
2020-Jan-22 09:12 120 11 gusting 22 4.9
2020-Jan-22 09:02 120 9 gusting 15 4.9
2020-Jan-22 08:52 110 9 gusting 22 4.9
2020-Jan-22 08:42 120 12 gusting 22 4.8
2020-Jan-22 08:32 120 8 gusting 14 4.8
2020-Jan-22 08:22 120 9 gusting 15 4.7
2020-Jan-22 08:12 110 11 gusting 27 4.7
2020-Jan-22 08:02 110 11 gusting 19 4.7
2020-Jan-22 07:52 110 9 gusting 19 4.4
2020-Jan-22 07:42 050 6 gusting 12 3.8
2020-Jan-22 07:32 010 5 gusting 9 3.9
2020-Jan-22 07:22 020 4 gusting 11 3.9
2020-Jan-22 07:12 020 2 gusting 9 3.9
2020-Jan-22 07:02 010 4 gusting 7 3.9
2020-Jan-22 06:52 030 5 gusting 11 4.1
2020-Jan-22 06:42 030 5 gusting 7 4.0
2020-Jan-22 06:32 040 5 gusting 9 4.0
2020-Jan-22 06:22 020 5 gusting 9 4.1
2020-Jan-22 06:12 020 6 gusting 7 3.9
2020-Jan-22 06:02 020 6 gusting 8 3.8
2020-Jan-22 05:52 040 5 gusting 7 4.1
2020-Jan-22 05:42 080 4 gusting 6 4.1
2020-Jan-22 05:32 090 2 gusting 6 4.1
2020-Jan-22 05:22 070 4 gusting 6 4.1
2020-Jan-22 05:12 080 6 gusting 13 3.9
2020-Jan-22 05:02 100 6 gusting 12 3.8
2020-Jan-22 04:52 110 8 gusting 17 3.8
2020-Jan-22 04:42 100 9 gusting 14 3.9
2020-Jan-22 04:32 090 8 gusting 13 4.1
2020-Jan-22 04:22 090 7 gusting 12 4.0
2020-Jan-22 04:12 090 7 gusting 13 3.9
2020-Jan-22 04:02 090 7 gusting 15 4.0
2020-Jan-22 03:52 100 11 gusting 17 4.2
2020-Jan-22 03:42 120 7 gusting 13 4.5
2020-Jan-22 03:32 120 8 gusting 15 4.8
2020-Jan-22 03:22 120 9 gusting 15 5.0
2020-Jan-22 03:12 120 11 gusting 15 5.0
2020-Jan-22 03:02 130 8 gusting 15 4.9
2020-Jan-22 02:52 140 7 gusting 15 4.9
2020-Jan-22 02:42 120 8 gusting 15 4.9
2020-Jan-22 02:32 120 9 gusting 17 4.9
2020-Jan-22 02:22 120 13 gusting 22 4.8
2020-Jan-22 02:12 120 11 gusting 19 4.7
2020-Jan-22 02:02 120 12 gusting 20 4.7
2020-Jan-22 01:52 120 13 gusting 20 4.6
2020-Jan-22 01:42 130 9 gusting 18 4.5
2020-Jan-22 01:32 130 11 gusting 20 4.5
2020-Jan-22 01:23 120 12 gusting 20 4.9
2020-Jan-22 01:12 110 14 gusting 25 5.1
2020-Jan-22 01:02 120 13 gusting 21 4.9
2020-Jan-22 00:52 110 20 gusting 33 4.9
2020-Jan-22 00:42 110 20 gusting 36 5.1
2020-Jan-22 00:32 110 19 gusting 34 5.1
2020-Jan-22 00:22 120 13 gusting 27 4.9
2020-Jan-22 00:12 130 8 gusting 22 4.8
2020-Jan-21 23:52 360 2 gusting 8 4.8
2020-Jan-21 23:42 010 2 gusting 6 4.8
2020-Jan-21 23:32 040 1 gusting 5 4.7
2020-Jan-21 23:22 020 1 gusting 4 4.7
2020-Jan-21 23:12 350 4 gusting 7 4.9
2020-Jan-21 23:02 350 2 gusting 4 5.0
2020-Jan-21 22:52 360 1 gusting 4 5.0
2020-Jan-21 22:42 350 2 gusting 6 5.1
2020-Jan-21 22:32 340 2 gusting 6 5.4
2020-Jan-21 22:22 010 1 gusting 4 5.5
2020-Jan-21 22:12 360 1 gusting 2 5.3
2020-Jan-21 22:02 020 1 gusting 5 5.1
2020-Jan-21 21:52 030 2 gusting 4 4.9
2020-Jan-21 21:42 010 1 gusting 4 5.0
2020-Jan-21 21:32 310 4 gusting 6 5.1
2020-Jan-21 21:22 320 2 gusting 5 5.2
2020-Jan-21 21:12 350 2 gusting 5 5.2
2020-Jan-21 21:02 010 2 gusting 6 5.1
2020-Jan-21 20:52 340 1 gusting 6 5.2
2020-Jan-21 20:42 010 1 gusting 2 5.2
2020-Jan-21 20:32 350 2 gusting 4 5.0
2020-Jan-21 20:22 010 1 gusting 4 4.8
2020-Jan-21 20:12 010 1 gusting 2 4.7
2020-Jan-21 20:02 010 2 gusting 5 4.6
2020-Jan-21 19:52 360 1 gusting 5 4.8
2020-Jan-21 19:42 010 1 gusting 6 4.4
2020-Jan-21 19:32 040 2 gusting 5 4.3
2020-Jan-21 19:22 360 2 gusting 5 4.2
2020-Jan-21 19:13 340 2 gusting 6 4.3
2020-Jan-21 19:02 010 2 gusting 6 3.9
2020-Jan-21 18:52 330 6 gusting 14 3.7
2020-Jan-21 18:42 320 5 gusting 11 3.3
2020-Jan-21 18:32 340 5 gusting 11 2.9
2020-Jan-21 18:22 320 5 gusting 13 2.6
2020-Jan-21 18:12 330 4 gusting 9 2.3
2020-Jan-21 18:02 320 6 gusting 13 2.1
2020-Jan-21 17:52 310 6 gusting 11 2.1
2020-Jan-21 17:42 330 6 gusting 14 2.0
2020-Jan-21 17:32 330 5 gusting 12 1.9
2020-Jan-21 17:22 310 6 gusting 11 1.9
2020-Jan-21 17:12 320 5 gusting 8 1.8
2020-Jan-21 17:02 320 4 gusting 8 1.6
2020-Jan-21 16:52 050 5 gusting 11 1.6
2020-Jan-21 16:42 360 2 gusting 6 1.5
2020-Jan-21 16:32 050 4 gusting 6 1.5
2020-Jan-21 16:22 360 1 gusting 4 1.4
2020-Jan-21 16:13 030 2 gusting 6 1.1
2020-Jan-21 16:02 030 2 gusting 5 1.0
2020-Jan-21 15:52 040 2 gusting 5 0.9
2020-Jan-21 15:42 020 2 gusting 5 0.8
2020-Jan-21 15:32 010 2 gusting 6 0.6
2020-Jan-21 15:22 010 1 gusting 4 0.4
2020-Jan-21 15:12 350 2 gusting 6 0.4
2020-Jan-21 15:02 350 2 gusting 5 0.3
2020-Jan-21 14:52 350 1 gusting 4 0.4
2020-Jan-21 14:42 350 2 gusting 6 0.5
2020-Jan-21 14:32 340 2 gusting 6 0.6
2020-Jan-21 14:22 350 4 gusting 8 0.7
2020-Jan-21 14:12 010 1 gusting 6 0.8
2020-Jan-21 14:02 350 4 gusting 7 0.9
2020-Jan-21 13:52 350 4 gusting 6 1.0
2020-Jan-21 13:42 360 2 gusting 5 1.1
2020-Jan-21 13:32 040 4 gusting 8 1.1
2020-Jan-21 13:22 350 4 gusting 6 1.2
2020-Jan-21 13:12 010 2 gusting 5 1.2
2020-Jan-21 13:02 030 4 gusting 5 1.3
2020-Jan-21 12:52 360 2 gusting 6 1.5
2020-Jan-21 12:42 330 2 gusting 8 1.8
2020-Jan-21 12:32 350 4 gusting 13 1.8
2020-Jan-21 12:22 360 2 gusting 6 1.9
2020-Jan-21 12:12 330 4 gusting 6 1.9
2020-Jan-21 12:02 350 2 gusting 7 1.8
2020-Jan-21 11:52 350 2 gusting 6 1.9
2020-Jan-21 11:42 330 4 gusting 8 2.0
2020-Jan-21 11:32 350 2 gusting 5 2.1
2020-Jan-21 11:22 330 4 gusting 7 2.2
2020-Jan-21 11:12 340 4 gusting 11 2.2
2020-Jan-21 11:02 330 5 gusting 8 2.4
2020-Jan-21 10:52 010 1 gusting 5 2.4
2020-Jan-21 10:42 020 2 gusting 7 2.1
2020-Jan-21 10:32 010 2 gusting 8 1.7
2020-Jan-21 10:22 320 4 gusting 9 1.8
2020-Jan-21 10:12 340 2 gusting 6 1.7
2020-Jan-21 10:02 340 4 gusting 6 1.7
2020-Jan-21 09:52 320 6 gusting 8 1.6
2020-Jan-21 09:42 310 6 gusting 9 1.8
2020-Jan-21 09:32 360 2 gusting 6 2.0
2020-Jan-21 09:22 010 2 gusting 6 2.0
2020-Jan-21 09:12 350 2 gusting 6 2.0
2020-Jan-21 09:02 320 2 gusting 7 1.9
2020-Jan-21 08:52 340 4 gusting 7 2.0
2020-Jan-21 08:42 030 4 gusting 7 1.8
2020-Jan-21 08:32 030 4 gusting 6 1.8
2020-Jan-21 08:22 350 6 gusting 7 1.7
2020-Jan-21 08:12 360 5 gusting 8 1.5
2020-Jan-21 08:02 310 4 gusting 7 1.7
2020-Jan-21 07:52 350 4 gusting 9 1.6
2020-Jan-21 07:42 320 6 gusting 13 1.7
2020-Jan-21 07:32 010 1 gusting 6 2.0
2020-Jan-21 07:22 010 2 gusting 5 2.2
2020-Jan-21 07:12 360 2 gusting 5 2.4
2020-Jan-21 07:02 360 1 gusting 4 2.4
2020-Jan-21 06:52 310 2 gusting 6 2.5
2020-Jan-21 06:42 020 1 gusting 4 2.6
2020-Jan-21 06:32 350 1 gusting 2 2.6
2020-Jan-21 06:22 360 1 gusting 4 2.5
2020-Jan-21 06:12 350 2 gusting 6 2.6
2020-Jan-21 06:02 350 2 gusting 4 2.7
2020-Jan-21 05:52 010 2 gusting 4 2.7
2020-Jan-21 05:42 010 2 gusting 5 2.7
2020-Jan-21 05:32 350 2 gusting 5 2.7
2020-Jan-21 05:22 360 2 gusting 6 2.7
2020-Jan-21 05:12 340 4 gusting 8 2.8
2020-Jan-21 05:02 350 2 gusting 5 2.8
2020-Jan-21 04:52 020 1 gusting 4 2.6
2020-Jan-21 04:42 330 4 gusting 6 2.8
2020-Jan-21 04:32 360 2 gusting 6 3.0
2020-Jan-21 04:22 360 2 gusting 6 3.0
2020-Jan-21 04:12 340 4 gusting 6 3.0
2020-Jan-21 04:02 360 2 gusting 6 3.3
2020-Jan-21 03:52 350 2 gusting 5 3.5
2020-Jan-21 03:42 010 1 gusting 5 3.5
2020-Jan-21 03:32 020 1 gusting 4 3.5
2020-Jan-21 03:22 010 1 gusting 4 3.6
2020-Jan-21 03:12 360 2 gusting 6 3.6
2020-Jan-21 03:02 340 2 gusting 6 3.6
2020-Jan-21 02:52 020 2 gusting 6 3.5
2020-Jan-21 02:42 020 1 gusting 5 3.5
2020-Jan-21 02:32 360 2 gusting 8 3.6
2020-Jan-21 02:22 350 2 gusting 6 3.6
2020-Jan-21 02:12 350 2 gusting 5 3.7
2020-Jan-21 02:02 360 2 gusting 6 3.8
2020-Jan-21 01:52 360 2 gusting 5 3.6
2020-Jan-21 01:42 360 1 gusting 6 3.6
2020-Jan-21 01:32 010 2 gusting 7 3.6
2020-Jan-21 01:22 360 2 gusting 6 3.7
2020-Jan-21 01:12 340 5 gusting 11 3.9
2020-Jan-21 01:02 030 2 gusting 6 4.1
2020-Jan-21 00:52 080 5 gusting 13 4.0
2020-Jan-21 00:42 100 6 gusting 13 4.0
2020-Jan-21 00:32 080 6 gusting 13 3.7
2020-Jan-21 00:22 070 6 gusting 18 3.8
2020-Jan-21 00:12 090 5 gusting 15 3.7
2020-Jan-20 23:52 010 2 gusting 6 3.8
2020-Jan-20 23:42 090 4 gusting 8 3.7
2020-Jan-20 23:32 160 6 gusting 11 3.6
2020-Jan-20 23:22 130 2 gusting 9 3.7
2020-Jan-20 23:12 350 2 gusting 7 3.9
2020-Jan-20 23:02 350 2 gusting 6 3.7
2020-Jan-20 22:52 280 2 gusting 7 3.7
2020-Jan-20 22:42 100 2 gusting 6 3.7
2020-Jan-20 22:32 090 2 gusting 7 3.4
2020-Jan-20 22:22 100 6 gusting 9 3.2
2020-Jan-20 22:12 160 5 gusting 9 3.2
2020-Jan-20 22:02 150 4 gusting 9 3.4
2020-Jan-20 21:52 090 5 gusting 11 3.6
2020-Jan-20 21:42 030 2 gusting 5 3.8
2020-Jan-20 21:32 010 2 gusting 5 3.9
2020-Jan-20 21:22 360 2 gusting 4 3.8
2020-Jan-20 21:12 350 2 gusting 4 3.6
2020-Jan-20 21:02 010 1 gusting 2 3.3
2020-Jan-20 20:52 240 2 gusting 6 3.3
2020-Jan-20 20:42 300 1 gusting 4 3.6
2020-Jan-20 20:32 350 1 gusting 5 3.5
2020-Jan-20 20:22 030 1 gusting 2 3.0
2020-Jan-20 20:12 240 1 gusting 5 2.7
2020-Jan-20 20:02 260 1 gusting 5 2.9
2020-Jan-20 19:52 100 1 gusting 6 2.8
2020-Jan-20 19:42 160 1 gusting 6 2.7
2020-Jan-20 19:32 100 4 gusting 7 2.6
2020-Jan-20 19:22 080 4 gusting 7 2.5
2020-Jan-20 19:12 080 4 gusting 7 2.4
2020-Jan-20 19:02 090 2 gusting 6 2.5
2020-Jan-20 18:52 110 1 gusting 4 2.6
2020-Jan-20 18:42 050 1 gusting 5 2.5
2020-Jan-20 18:32 050 1 gusting 5 2.4
2020-Jan-20 18:22 090 0 gusting 2 2.3
2020-Jan-20 18:12 330 0 gusting 2 2.3
2020-Jan-20 18:02 080 1 gusting 5 2.2
2020-Jan-20 17:52 080 2 gusting 6 2.1
2020-Jan-20 17:42 060 1 gusting 5 2.4
2020-Jan-20 17:32 330 1 gusting 4 2.6
2020-Jan-20 17:22 010 2 gusting 4 2.5
2020-Jan-20 17:12 010 2 gusting 4 2.4
2020-Jan-20 17:02 020 2 gusting 5 2.2
2020-Jan-20 16:52 070 2 gusting 5 2.1
2020-Jan-20 16:42 060 4 gusting 6 2.1
2020-Jan-20 16:32 030 4 gusting 5 2.3
2020-Jan-20 16:22 010 2 gusting 4 2.5
2020-Jan-20 16:12 030 2 gusting 5 2.4
2020-Jan-20 16:02 020 2 gusting 5 2.5
2020-Jan-20 15:52 010 2 gusting 4 2.6
2020-Jan-20 15:42 020 2 gusting 5 2.6
2020-Jan-20 15:32 360 2 gusting 4 2.5
2020-Jan-20 15:22 360 2 gusting 4 2.6
2020-Jan-20 15:12 010 2 gusting 6 2.7
2020-Jan-20 15:02 010 2 gusting 4 2.7